Time;durP1;ratioP1;P1;durP2;ratioP2;P2;SDS_P1;SDS_P2;PMS_P1;PMS_P2;Temp;Humidity;BMP_temperature;BMP_pressure;BME280_temperature;BME280_humidity;BME280_pressure;Samples;Min_cycle;Max_cycle;Signal;HPM_P1;HPM_P2
2023/07/02 00:02:24;;;;;;;1.35;1.10;;;;;;;;;;5087749;28;20483;-82
2023/07/02 00:04:50;;;;;;;4.40;1.80;;;;;;;;;;5090161;28;20032;-83
2023/07/02 00:07:15;;;;;;;1.00;0.85;;;;;;;;;;5089940;28;20039;-83
2023/07/02 00:09:41;;;;;;;2.67;1.40;;;;;;;;;;5090941;28;20046;-84
2023/07/02 00:12:07;;;;;;;1.27;0.75;;;;;;;;;;5090165;28;20023;-85
2023/07/02 00:14:33;;;;;;;1.55;0.70;;;;;;;;;;5089994;28;20462;-84
2023/07/02 00:16:58;;;;;;;2.30;1.27;;;;;;;;;;5088906;28;20052;-85
2023/07/02 00:19:24;;;;;;;1.85;0.95;;;;;;;;;;5090452;28;20038;-85
2023/07/02 00:21:49;;;;;;;0.80;0.77;;;;;;;;;;5121867;27;20026;-84
2023/07/02 00:24:15;;;;;;;3.53;1.55;;;;;;;;;;5091009;28;20043;-87
2023/07/02 00:26:41;;;;;;;4.70;0.90;;;;;;;;;;5090389;28;20446;-84
2023/07/02 00:29:08;;;;;;;4.28;1.52;;;;;;;;;;5089969;28;20066;-86
2023/07/02 00:31:34;;;;;;;1.52;0.98;;;;;;;;;;5091441;28;20111;-84
2023/07/02 00:34:02;;;;;;;1.95;1.05;;;;;;;;;;5088697;28;20028;-83
2023/07/02 00:36:29;;;;;;;1.58;1.33;;;;;;;;;;5086987;28;20040;-85
2023/07/02 00:38:54;;;;;;;1.98;1.30;;;;;;;;;;5087514;28;20112;-83
2023/07/02 00:41:20;;;;;;;1.05;0.82;;;;;;;;;;5090921;28;20110;-84
2023/07/02 00:43:46;;;;;;;2.63;1.17;;;;;;;;;;5089919;28;20109;-83
2023/07/02 00:46:17;;;;;;;1.27;0.82;;;;;;;;;;5089587;28;20028;-85
2023/07/02 00:48:43;;;;;;;2.88;1.20;;;;;;;;;;5090659;28;20031;-84
2023/07/02 00:51:10;;;;;;;2.10;1.13;;;;;;;;;;5089029;28;20031;-84
2023/07/02 00:53:35;;;;;;;0.60;0.60;;;;;;;;;;5088315;28;20048;-85
2023/07/02 00:56:02;;;;;;;1.75;1.13;;;;;;;;;;5087580;28;20061;-83
2023/07/02 00:58:27;;;;;;;2.00;0.95;;;;;;;;;;5088185;28;20051;-82
2023/07/02 01:00:56;;;;;;;2.47;1.65;;;;;;;;;;5089373;28;20105;-82
2023/07/02 01:03:21;;;;;;;0.70;0.60;;;;;;;;;;5089635;28;20411;-83
2023/07/02 01:05:47;;;;;;;3.42;1.50;;;;;;;;;;5090285;28;20023;-83
2023/07/02 01:08:12;;;;;;;1.88;1.27;;;;;;;;;;5089102;28;20055;-84
2023/07/02 01:10:38;;;;;;;3.47;1.00;;;;;;;;;;5090493;28;20081;-85
2023/07/02 01:13:12;;;;;;;1.08;0.85;;;;;;;;;;5086527;28;20048;-84
2023/07/02 01:15:38;;;;;;;3.25;1.35;;;;;;;;;;5088151;28;20056;-83
2023/07/02 01:18:07;;;;;;;1.60;0.90;;;;;;;;;;5088251;28;20070;-83
2023/07/02 01:20:34;;;;;;;1.27;0.95;;;;;;;;;;5089961;28;20024;-84
2023/07/02 01:23:03;;;;;;;1.45;1.08;;;;;;;;;;5090526;28;20039;-83
2023/07/02 01:25:29;;;;;;;1.97;1.40;;;;;;;;;;5088875;28;20431;-84
2023/07/02 01:27:55;;;;;;;1.17;0.75;;;;;;;;;;5087170;28;20288;-83
2023/07/02 01:30:21;;;;;;;1.75;1.23;;;;;;;;;;5087607;28;20031;-84
2023/07/02 01:32:46;;;;;;;1.45;1.15;;;;;;;;;;5089665;28;20450;-83
2023/07/02 01:35:12;;;;;;;2.70;1.15;;;;;;;;;;5089399;28;20053;-85
2023/07/02 01:37:38;;;;;;;4.03;1.10;;;;;;;;;;5090819;28;20077;-83
2023/07/02 01:40:08;;;;;;;2.03;1.30;;;;;;;;;;5092824;28;20016;-83
2023/07/02 01:42:33;;;;;;;1.30;0.90;;;;;;;;;;5092861;28;20035;-84
2023/07/02 01:44:59;;;;;;;3.17;1.70;;;;;;;;;;5091633;28;20032;-86
2023/07/02 01:47:24;;;;;;;3.97;1.75;;;;;;;;;;5094110;28;20034;-85
2023/07/02 01:49:50;;;;;;;2.25;1.75;;;;;;;;;;5094128;28;20050;-87
2023/07/02 01:52:16;;;;;;;1.52;0.98;;;;;;;;;;5094372;28;20030;-84
2023/07/02 01:54:42;;;;;;;2.05;1.30;;;;;;;;;;5093387;28;20047;-81
2023/07/02 01:57:08;;;;;;;3.40;1.63;;;;;;;;;;5093394;28;20054;-85
2023/07/02 01:59:34;;;;;;;1.80;1.35;;;;;;;;;;5091548;28;20016;-85
2023/07/02 02:02:00;;;;;;;3.67;2.00;;;;;;;;;;5090864;28;20024;-85
2023/07/02 02:04:25;;;;;;;1.40;0.82;;;;;;;;;;5091566;28;20039;-83
2023/07/02 02:06:51;;;;;;;2.60;1.42;;;;;;;;;;5092429;28;20173;-83
2023/07/02 02:09:18;;;;;;;3.58;1.85;;;;;;;;;;5091372;28;20357;-84
2023/07/02 02:11:45;;;;;;;4.55;2.03;;;;;;;;;;5091986;28;20480;-84
2023/07/02 02:14:11;;;;;;;2.45;1.27;;;;;;;;;;5092671;28;20100;-86
2023/07/02 02:16:36;;;;;;;1.92;0.90;;;;;;;;;;5093318;28;20055;-86
2023/07/02 02:19:03;;;;;;;1.98;1.15;;;;;;;;;;5091786;28;20028;-88
2023/07/02 02:21:29;;;;;;;2.33;1.27;;;;;;;;;;5093355;28;20031;-89
2023/07/02 02:23:54;;;;;;;2.35;1.00;;;;;;;;;;5093210;28;20024;-86
2023/07/02 02:26:21;;;;;;;2.33;1.73;;;;;;;;;;5092784;28;20047;-86
2023/07/02 02:28:48;;;;;;;6.22;2.70;;;;;;;;;;5092689;28;20037;-85
2023/07/02 02:31:13;;;;;;;1.75;1.33;;;;;;;;;;5090758;28;20468;-86
2023/07/02 02:33:38;;;;;;;1.85;1.55;;;;;;;;;;5092742;28;20027;-84
2023/07/02 02:36:05;;;;;;;3.95;1.90;;;;;;;;;;5091761;28;20028;-86
2023/07/02 02:38:32;;;;;;;3.20;1.75;;;;;;;;;;5092540;28;20110;-87
2023/07/02 02:40:57;;;;;;;3.42;1.42;;;;;;;;;;5092035;28;20020;-88
2023/07/02 02:43:23;;;;;;;1.60;1.05;;;;;;;;;;5090606;28;20035;-83
2023/07/02 02:45:48;;;;;;;3.90;1.63;;;;;;;;;;5092457;28;20028;-86
2023/07/02 02:48:14;;;;;;;1.75;1.25;;;;;;;;;;5091360;28;20081;-86
2023/07/02 02:50:43;;;;;;;5.43;1.60;;;;;;;;;;5090817;28;20063;-87
2023/07/02 02:53:09;;;;;;;2.30;1.20;;;;;;;;;;5090173;28;20103;-86
2023/07/02 02:55:38;;;;;;;1.98;1.58;;;;;;;;;;5091932;28;20028;-87
2023/07/02 02:58:03;;;;;;;2.15;1.20;;;;;;;;;;5090806;28;20096;-86
2023/07/02 03:00:29;;;;;;;1.38;0.90;;;;;;;;;;5092951;28;20032;-85
2023/07/02 03:02:55;;;;;;;1.13;0.90;;;;;;;;;;5091091;28;20053;-88
2023/07/02 03:05:21;;;;;;;2.50;1.30;;;;;;;;;;5090768;28;20058;-87
2023/07/02 03:07:47;;;;;;;9.18;1.48;;;;;;;;;;5091563;28;20032;-87
2023/07/02 03:10:12;;;;;;;2.30;1.20;;;;;;;;;;5090831;28;20091;-89
2023/07/02 03:12:38;;;;;;;3.25;1.40;;;;;;;;;;5090570;28;20031;-87
2023/07/02 03:15:03;;;;;;;2.33;1.10;;;;;;;;;;5091204;28;20483;-86
2023/07/02 03:17:29;;;;;;;2.90;1.63;;;;;;;;;;5088630;28;20756;-86
2023/07/02 03:19:54;;;;;;;1.42;0.88;;;;;;;;;;5092075;28;20051;-85
2023/07/02 03:22:20;;;;;;;1.75;0.75;;;;;;;;;;5088544;28;20020;-83
2023/07/02 03:24:45;;;;;;;3.95;1.45;;;;;;;;;;5091812;28;20035;-87
2023/07/02 03:27:11;;;;;;;1.05;0.55;;;;;;;;;;5088964;28;20028;-85
2023/07/02 03:29:38;;;;;;;1.50;0.90;;;;;;;;;;5089296;28;20107;-84
2023/07/02 03:32:04;;;;;;;1.77;1.42;;;;;;;;;;5091100;28;20028;-87
2023/07/02 03:34:29;;;;;;;1.25;0.88;;;;;;;;;;5091348;28;20078;-86
2023/07/02 03:36:54;;;;;;;1.65;1.13;;;;;;;;;;5091929;28;20024;-85
2023/07/02 03:39:20;;;;;;;1.42;0.73;;;;;;;;;;5091552;28;20030;-86
2023/07/02 03:41:45;;;;;;;1.40;0.80;;;;;;;;;;5089750;28;20154;-86
2023/07/02 03:44:11;;;;;;;2.00;1.00;;;;;;;;;;5091813;28;20124;-86
2023/07/02 03:46:37;;;;;;;1.70;1.05;;;;;;;;;;5090025;28;20028;-85
2023/07/02 03:49:03;;;;;;;2.15;1.15;;;;;;;;;;5090737;28;20107;-87
2023/07/02 03:51:30;;;;;;;2.30;1.60;;;;;;;;;;5090565;28;20055;-87
2023/07/02 03:53:55;;;;;;;2.50;1.48;;;;;;;;;;5091506;28;20065;-86
2023/07/02 03:56:21;;;;;;;0.95;0.85;;;;;;;;;;5091164;28;20028;-88
2023/07/02 03:58:46;;;;;;;2.72;1.50;;;;;;;;;;5088456;28;20476;-88
2023/07/02 04:01:12;;;;;;;1.33;0.50;;;;;;;;;;5089094;28;20388;-86
2023/07/02 04:03:38;;;;;;;1.45;0.70;;;;;;;;;;5104977;28;20035;-85
2023/07/02 04:06:05;;;;;;;3.15;1.13;;;;;;;;;;5090011;28;20024;-84
2023/07/02 04:08:31;;;;;;;2.00;1.00;;;;;;;;;;5088828;28;20019;-84
2023/07/02 04:10:57;;;;;;;0.60;0.57;;;;;;;;;;5089926;28;20032;-85
2023/07/02 04:13:22;;;;;;;3.38;1.35;;;;;;;;;;5090538;28;20368;-84
2023/07/02 04:15:48;;;;;;;1.13;0.77;;;;;;;;;;5089841;28;20037;-87
2023/07/02 04:18:13;;;;;;;1.88;1.35;;;;;;;;;;5090478;28;20495;-87
2023/07/02 04:20:39;;;;;;;2.15;1.20;;;;;;;;;;5090798;28;20047;-88
2023/07/02 04:23:05;;;;;;;1.77;1.13;;;;;;;;;;5091431;28;20568;-87
2023/07/02 04:25:31;;;;;;;5.05;2.10;;;;;;;;;;5090525;28;20032;-86
2023/07/02 04:27:58;;;;;;;3.35;1.23;;;;;;;;;;5088740;28;20514;-88
2023/07/02 04:30:24;;;;;;;3.70;1.40;;;;;;;;;;5090613;28;20110;-88
2023/07/02 04:32:50;;;;;;;2.45;1.30;;;;;;;;;;5091213;28;20110;-88
2023/07/02 04:35:16;;;;;;;2.35;1.42;;;;;;;;;;5089482;28;20046;-86
2023/07/02 04:37:41;;;;;;;0.70;0.57;;;;;;;;;;5088944;28;20020;-86
2023/07/02 04:40:10;;;;;;;1.13;0.95;;;;;;;;;;5086404;28;20032;-85
2023/07/02 04:42:40;;;;;;;3.13;1.48;;;;;;;;;;5090771;28;20031;-86
2023/07/02 04:45:08;;;;;;;2.70;1.77;;;;;;;;;;5088466;28;20147;-87
2023/07/02 04:47:34;;;;;;;2.63;1.45;;;;;;;;;;5090819;28;20110;-86
2023/07/02 04:50:00;;;;;;;1.95;0.98;;;;;;;;;;5087327;28;20024;-85
2023/07/02 04:52:26;;;;;;;5.75;1.52;;;;;;;;;;5088053;28;20493;-85
2023/07/02 04:54:51;;;;;;;1.27;0.75;;;;;;;;;;5089781;28;20153;-87
2023/07/02 04:57:19;;;;;;;3.90;1.67;;;;;;;;;;5089055;28;20031;-87
2023/07/02 04:59:44;;;;;;;1.27;0.82;;;;;;;;;;5087968;28;20080;-87
2023/07/02 05:02:10;;;;;;;1.92;0.98;;;;;;;;;;5089851;28;20476;-86
2023/07/02 05:04:37;;;;;;;3.03;1.70;;;;;;;;;;5087660;28;20459;-87
2023/07/02 05:07:04;;;;;;;2.40;0.98;;;;;;;;;;5089441;28;20039;-87
2023/07/02 05:09:30;;;;;;;1.83;1.20;;;;;;;;;;5088513;28;20480;-87
2023/07/02 05:11:55;;;;;;;1.90;1.15;;;;;;;;;;5089891;28;20091;-86
2023/07/02 05:14:21;;;;;;;1.45;0.80;;;;;;;;;;5092847;28;20158;-86
2023/07/02 05:16:46;;;;;;;1.70;1.23;;;;;;;;;;5094062;28;20028;-85
2023/07/02 05:19:11;;;;;;;2.42;0.93;;;;;;;;;;5095145;28;20044;-85
2023/07/02 05:21:37;;;;;;;3.38;2.13;;;;;;;;;;5093198;28;20026;-84
2023/07/02 05:24:03;;;;;;;2.35;1.30;;;;;;;;;;5089113;28;20024;-83
2023/07/02 05:26:28;;;;;;;2.45;1.08;;;;;;;;;;5094304;28;20472;-84
2023/07/02 05:28:53;;;;;;;1.67;1.10;;;;;;;;;;5093284;28;20031;-84
2023/07/02 05:31:19;;;;;;;1.50;1.15;;;;;;;;;;5093991;28;20106;-82
2023/07/02 05:33:45;;;;;;;2.50;1.52;;;;;;;;;;5092990;28;20058;-82
2023/07/02 05:36:10;;;;;;;2.17;1.10;;;;;;;;;;5092976;28;20032;-82
2023/07/02 05:38:36;;;;;;;1.88;1.45;;;;;;;;;;5093453;28;20103;-83
2023/07/02 05:41:04;;;;;;;2.92;1.20;;;;;;;;;;5091070;28;20529;-83
2023/07/02 05:43:29;;;;;;;3.17;1.95;;;;;;;;;;5092855;28;20481;-83
2023/07/02 05:46:00;;;;;;;3.67;1.63;;;;;;;;;;5092669;28;20123;-83
2023/07/02 05:48:25;;;;;;;1.27;1.08;;;;;;;;;;5092181;28;20394;-81
2023/07/02 05:50:50;;;;;;;1.45;1.33;;;;;;;;;;5092857;28;20054;-82
2023/07/02 05:53:16;;;;;;;2.30;1.60;;;;;;;;;;5093153;28;20063;-82
2023/07/02 05:55:42;;;;;;;3.22;2.15;;;;;;;;;;5090870;28;20035;-83
2023/07/02 05:58:08;;;;;;;3.10;1.52;;;;;;;;;;5091254;28;20036;-82
2023/07/02 06:00:34;;;;;;;1.60;1.40;;;;;;;;;;5091876;28;20111;-83
2023/07/02 06:02:59;;;;;;;2.33;1.17;;;;;;;;;;5091355;28;20426;-83
2023/07/02 06:05:25;;;;;;;1.75;1.15;;;;;;;;;;5089994;28;20464;-83
2023/07/02 06:07:50;;;;;;;3.00;2.03;;;;;;;;;;5093767;28;20035;-85
2023/07/02 06:10:16;;;;;;;2.60;1.27;;;;;;;;;;5092366;28;20024;-84
2023/07/02 06:12:43;;;;;;;2.97;1.63;;;;;;;;;;5091695;28;20093;-84
2023/07/02 06:15:09;;;;;;;3.95;1.63;;;;;;;;;;5091832;28;20028;-84
2023/07/02 06:17:34;;;;;;;3.85;1.40;;;;;;;;;;5092620;28;20027;-84
2023/07/02 06:20:04;;;;;;;3.05;1.40;;;;;;;;;;5092168;28;20099;-85
2023/07/02 06:22:30;;;;;;;;;;;;;;;;;;5093967;28;20052;-85
2023/07/02 06:24:55;;;;;;;3.45;2.15;;;;;;;;;;5089996;28;19951;-85
2023/07/02 06:27:21;;;;;;;4.18;1.38;;;;;;;;;;5093517;28;20422;-82
2023/07/02 06:29:46;;;;;;;2.97;1.88;;;;;;;;;;5093597;28;20028;-81
2023/07/02 06:32:12;;;;;;;3.10;1.67;;;;;;;;;;5092176;28;20035;-83
2023/07/02 06:34:37;;;;;;;2.97;1.73;;;;;;;;;;5093354;28;20050;-82
2023/07/02 06:37:05;;;;;;;4.75;1.83;;;;;;;;;;5089448;28;20369;-84
2023/07/02 06:39:31;;;;;;;2.90;1.58;;;;;;;;;;5086213;28;20480;-79
2023/07/02 06:41:57;;;;;;;2.50;1.90;;;;;;;;;;5091765;28;20552;-80
2023/07/02 06:44:22;;;;;;;3.58;2.53;;;;;;;;;;5092673;28;20027;-80
2023/07/02 06:46:48;;;;;;;5.55;2.53;;;;;;;;;;5089839;28;20028;-82
2023/07/02 06:49:13;;;;;;;2.40;1.65;;;;;;;;;;5089102;28;20024;-80
2023/07/02 06:51:39;;;;;;;4.68;2.22;;;;;;;;;;5086368;28;20036;-80
2023/07/02 06:54:05;;;;;;;1.98;1.27;;;;;;;;;;5080997;28;20074;-77
2023/07/02 06:56:32;;;;;;;2.60;1.77;;;;;;;;;;5087982;28;20032;-80
2023/07/02 06:58:58;;;;;;;1.80;1.10;;;;;;;;;;5088587;28;20020;-79
2023/07/02 07:01:23;;;;;;;1.60;1.27;;;;;;;;;;5091234;28;20061;-80
2023/07/02 07:03:48;;;;;;;2.47;1.40;;;;;;;;;;5088149;28;20506;-80
2023/07/02 07:06:14;;;;;;;4.95;1.70;;;;;;;;;;5089731;28;20028;-81
2023/07/02 07:08:39;;;;;;;2.60;1.27;;;;;;;;;;5086494;28;20206;-80
2023/07/02 07:11:05;;;;;;;1.98;1.17;;;;;;;;;;5083488;28;20467;-80
2023/07/02 07:13:30;;;;;;;1.55;1.08;;;;;;;;;;5090192;28;20032;-83
2023/07/02 07:15:56;;;;;;;2.17;1.33;;;;;;;;;;5090751;28;20031;-80
2023/07/02 07:18:21;;;;;;;2.90;1.65;;;;;;;;;;5088455;28;20028;-79
2023/07/02 07:20:46;;;;;;;3.70;1.52;;;;;;;;;;5092590;28;20406;-86
2023/07/02 07:23:12;;;;;;;1.35;1.00;;;;;;;;;;5088210;28;20036;-81
2023/07/02 07:25:37;;;;;;;2.33;1.15;;;;;;;;;;5091806;28;20020;-80
2023/07/02 07:28:03;;;;;;;4.68;2.13;;;;;;;;;;5085860;28;20433;-81
2023/07/02 07:30:28;;;;;;;1.92;1.05;;;;;;;;;;5089382;28;20523;-85
2023/07/02 07:32:54;;;;;;;1.48;0.93;;;;;;;;;;5087048;28;20024;-86
2023/07/02 07:35:21;;;;;;;3.42;1.98;;;;;;;;;;5091500;28;20452;-82
2023/07/02 07:37:47;;;;;;;5.13;1.55;;;;;;;;;;5089992;28;20043;-81
2023/07/02 07:40:13;;;;;;;1.30;1.05;;;;;;;;;;5088809;28;20035;-82
2023/07/02 07:42:38;;;;;;;2.70;1.48;;;;;;;;;;5087220;28;20036;-81
2023/07/02 07:45:04;;;;;;;2.70;1.10;;;;;;;;;;5089279;28;20046;-80
2023/07/02 07:47:29;;;;;;;4.50;2.10;;;;;;;;;;5085228;28;20096;-80
2023/07/02 07:49:55;;;;;;;2.13;1.42;;;;;;;;;;5090344;28;20024;-81
2023/07/02 07:52:21;;;;;;;1.60;1.05;;;;;;;;;;5086333;28;20042;-81
2023/07/02 07:54:47;;;;;;;1.73;1.23;;;;;;;;;;5090669;28;20079;-81
2023/07/02 07:57:13;;;;;;;1.38;0.85;;;;;;;;;;5089795;28;20059;-82
2023/07/02 07:59:38;;;;;;;2.92;1.98;;;;;;;;;;5087327;28;20456;-82
2023/07/02 08:02:04;;;;;;;1.98;1.35;;;;;;;;;;5086108;28;20035;-82
2023/07/02 08:04:30;;;;;;;1.83;1.15;;;;;;;;;;5088067;28;20035;-81
2023/07/02 08:06:56;;;;;;;2.53;0.93;;;;;;;;;;5090054;28;20032;-79
2023/07/02 08:09:23;;;;;;;4.10;2.10;;;;;;;;;;5088909;28;20039;-79
2023/07/02 08:11:48;;;;;;;2.13;1.48;;;;;;;;;;5090620;28;20487;-81
2023/07/02 08:14:14;;;;;;;2.60;1.63;;;;;;;;;;5089858;28;20034;-79
2023/07/02 08:16:39;;;;;;;2.30;1.50;;;;;;;;;;5089812;28;20042;-80
2023/07/02 08:19:05;;;;;;;2.00;1.20;;;;;;;;;;5086455;28;20464;-79
2023/07/02 08:21:30;;;;;;;2.78;1.35;;;;;;;;;;5088483;28;20028;-77
2023/07/02 08:23:57;;;;;;;1.25;0.98;;;;;;;;;;5087149;28;20020;-79
2023/07/02 08:26:23;;;;;;;1.63;0.95;;;;;;;;;;5090990;28;20084;-78
2023/07/02 08:28:48;;;;;;;5.13;2.33;;;;;;;;;;5085943;28;20028;-85
2023/07/02 08:31:14;;;;;;;1.55;1.15;;;;;;;;;;5088910;28;20046;-82
2023/07/02 08:33:39;;;;;;;1.88;1.13;;;;;;;;;;5086912;28;20024;-82
2023/07/02 08:36:05;;;;;;;3.25;1.33;;;;;;;;;;5087767;28;20044;-85
2023/07/02 08:38:30;;;;;;;2.13;1.40;;;;;;;;;;5086512;28;20032;-83
2023/07/02 08:40:56;;;;;;;1.17;1.08;;;;;;;;;;5090475;28;20463;-84
2023/07/02 08:43:25;;;;;;;1.45;1.17;;;;;;;;;;5089442;28;20032;-85
2023/07/02 08:45:51;;;;;;;2.17;1.53;;;;;;;;;;5087703;28;20081;-83
2023/07/02 08:48:22;;;;;;;2.05;1.38;;;;;;;;;;5086201;28;20375;-84
2023/07/02 08:50:49;;;;;;;1.42;0.82;;;;;;;;;;5089732;28;20032;-80
2023/07/02 08:53:14;;;;;;;3.30;1.33;;;;;;;;;;5083620;28;20046;-83
2023/07/02 08:55:40;;;;;;;1.00;0.70;;;;;;;;;;5082998;28;22138;-83
2023/07/02 08:58:06;;;;;;;1.65;1.05;;;;;;;;;;5083550;28;20063;-81
2023/07/02 09:00:35;;;;;;;1.88;0.82;;;;;;;;;;5085279;28;20545;-79
2023/07/02 09:03:12;;;;;;;1.85;1.17;;;;;;;;;;5083836;28;20020;-80
2023/07/02 09:05:53;;;;;;;0.80;0.80;;;;;;;;;;5081113;28;20031;-80
2023/07/02 09:08:25;;;;;;;1.95;1.08;;;;;;;;;;5083106;28;20448;-80
2023/07/02 09:10:50;;;;;;;3.00;1.30;;;;;;;;;;5083903;28;20487;-79
2023/07/02 09:13:16;;;;;;;1.88;1.05;;;;;;;;;;5083339;28;20021;-82
2023/07/02 09:15:42;;;;;;;2.60;1.30;;;;;;;;;;5079782;28;20032;-79
2023/07/02 09:18:20;;;;;;;1.58;1.25;;;;;;;;;;5087563;28;20058;-82
2023/07/02 09:20:46;;;;;;;1.92;0.98;;;;;;;;;;5080166;28;20028;-81
2023/07/02 09:23:12;;;;;;;1.95;0.88;;;;;;;;;;5088257;28;20031;-78
2023/07/02 09:25:39;;;;;;;4.53;1.40;;;;;;;;;;5086090;28;20028;-78
2023/07/02 09:28:33;;;;;;;1.58;1.08;;;;;;;;;;5090087;28;20106;-81
2023/07/02 09:30:59;;;;;;;1.20;0.90;;;;;;;;;;5077289;28;20076;-80
2023/07/02 09:33:26;;;;;;;1.15;1.02;;;;;;;;;;5085842;28;20431;-79
2023/07/02 09:35:51;;;;;;;1.92;0.98;;;;;;;;;;5082351;28;20032;-83
2023/07/02 09:38:19;;;;;;;2.65;1.13;;;;;;;;;;5087280;28;21005;-79
2023/07/02 09:40:53;;;;;;;2.63;1.45;;;;;;;;;;5090630;28;20024;-81
2023/07/02 09:43:20;;;;;;;1.38;1.08;;;;;;;;;;5088750;28;20030;-82
2023/07/02 09:45:47;;;;;;;1.58;0.80;;;;;;;;;;5089400;28;20103;-79
2023/07/02 09:48:15;;;;;;;1.13;0.82;;;;;;;;;;5086406;28;20032;-83
2023/07/02 09:50:45;;;;;;;2.60;1.27;;;;;;;;;;5088357;28;20024;-83
2023/07/02 09:53:11;;;;;;;2.30;1.45;;;;;;;;;;5085117;28;20123;-83
2023/07/02 09:55:39;;;;;;;7.00;1.23;;;;;;;;;;5086970;28;20426;-82
2023/07/02 09:58:05;;;;;;;2.78;1.50;;;;;;;;;;5087311;28;20043;-80
2023/07/02 10:00:30;;;;;;;3.50;1.48;;;;;;;;;;5093689;28;20020;-80
2023/07/02 10:02:56;;;;;;;1.83;1.02;;;;;;;;;;5087536;28;20029;-80
2023/07/02 10:05:32;;;;;;;2.47;1.25;;;;;;;;;;5083808;28;20745;-81
2023/07/02 10:08:10;;;;;;;2.35;1.73;;;;;;;;;;5090362;28;20403;-83
2023/07/02 10:10:36;;;;;;;2.00;1.17;;;;;;;;;;5090700;28;20028;-80
2023/07/02 10:13:01;;;;;;;0.95;0.68;;;;;;;;;;5091384;28;20468;-80
2023/07/02 10:17:28;;;;;;;3.45;1.55;;;;;;;;;;5069815;28;20389;-83
2023/07/02 10:19:55;;;;;;;1.70;1.08;;;;;;;;;;5070348;28;20029;-81
2023/07/02 10:22:20;;;;;;;2.60;1.13;;;;;;;;;;5074654;28;20112;-82
2023/07/02 10:24:59;;;;;;;3.33;1.63;;;;;;;;;;5069106;28;20143;-84
2023/07/02 10:27:35;;;;;;;1.83;1.02;;;;;;;;;;5065858;28;20032;-80
2023/07/02 10:30:03;;;;;;;1.92;1.23;;;;;;;;;;5065685;28;20032;-85
2023/07/02 10:32:29;;;;;;;1.80;1.00;;;;;;;;;;5070752;28;20154;-79
2023/07/02 10:34:55;;;;;;;1.40;1.13;;;;;;;;;;5069607;28;20099;-89
2023/07/02 10:37:21;;;;;;;1.15;0.82;;;;;;;;;;5076269;28;20023;-88
2023/07/02 10:39:46;;;;;;;2.30;1.58;;;;;;;;;;5078052;28;20036;-89
2023/07/02 10:42:12;;;;;;;2.25;1.13;;;;;;;;;;5076566;28;20062;-86
2023/07/02 10:44:51;;;;;;;3.50;2.30;;;;;;;;;;5079397;28;20406;-88
2023/07/02 10:47:17;;;;;;;;;;;;;;;;;;5076572;28;20395;-88
2023/07/02 10:49:42;;;;;;;2.75;1.50;;;;;;;;;;5075687;28;19991;-87
2023/07/02 10:52:08;;;;;;;1.40;1.17;;;;;;;;;;5077179;28;20017;-89
2023/07/02 10:54:44;;;;;;;3.10;1.77;;;;;;;;;;5082629;28;20119;-89
2023/07/02 10:57:13;;;;;;;4.00;2.55;;;;;;;;;;5079963;28;20020;-89
2023/07/02 10:59:38;;;;;;;5.97;3.08;;;;;;;;;;5076866;28;20480;-87
2023/07/02 11:02:04;;;;;;;2.85;1.60;;;;;;;;;;5076106;28;20020;-88
2023/07/02 11:04:30;;;;;;;2.03;1.42;;;;;;;;;;5076886;28;20035;-88
2023/07/02 11:06:56;;;;;;;1.58;1.23;;;;;;;;;;5081859;28;20029;-87
2023/07/02 11:09:23;;;;;;;1.20;0.82;;;;;;;;;;5075154;28;20070;-89
2023/07/02 11:12:00;;;;;;;2.53;1.58;;;;;;;;;;5071713;28;20024;-87
2023/07/02 11:14:34;;;;;;;1.65;1.13;;;;;;;;;;5076743;28;20032;-85
2023/07/02 11:17:05;;;;;;;0.95;0.82;;;;;;;;;;5080185;28;20388;-86
2023/07/02 11:19:34;;;;;;;0.95;0.82;;;;;;;;;;5071525;28;20024;-88
2023/07/02 11:22:00;;;;;;;1.77;1.00;;;;;;;;;;5070669;28;20522;-87
2023/07/02 11:24:33;;;;;;;2.53;1.52;;;;;;;;;;5073415;28;20023;-84
2023/07/02 11:27:01;;;;;;;1.25;0.85;;;;;;;;;;5072560;28;20031;-87
2023/07/02 11:29:31;;;;;;;3.63;1.25;;;;;;;;;;5057846;28;20443;-87
2023/07/02 11:32:13;;;;;;;0.98;0.85;;;;;;;;;;5064672;28;20476;-87
2023/07/02 11:34:39;;;;;;;1.30;0.82;;;;;;;;;;5061628;28;20472;-85
2023/07/02 11:37:05;;;;;;;2.40;1.55;;;;;;;;;;5060249;28;21248;-86
2023/07/02 11:39:32;;;;;;;2.28;1.52;;;;;;;;;;5057795;28;20154;-85
2023/07/02 11:41:57;;;;;;;2.28;1.20;;;;;;;;;;5058449;28;20028;-85
2023/07/02 11:44:23;;;;;;;0.82;0.70;;;;;;;;;;5064798;28;20541;-88
2023/07/02 11:46:49;;;;;;;1.52;1.10;;;;;;;;;;5061327;28;20534;-86
2023/07/02 11:49:15;;;;;;;0.98;0.70;;;;;;;;;;5063960;28;20028;-85
2023/07/02 11:51:46;;;;;;;0.70;0.70;;;;;;;;;;5060801;28;20025;-88
2023/07/02 11:54:11;;;;;;;1.73;0.82;;;;;;;;;;5087210;28;20027;-84
2023/07/02 11:56:38;;;;;;;2.05;0.80;;;;;;;;;;5067947;28;20029;-82
2023/07/02 11:59:03;;;;;;;0.80;0.65;;;;;;;;;;5056298;28;20103;-82
2023/07/02 12:01:29;;;;;;;0.80;0.63;;;;;;;;;;5056206;28;20448;-86
2023/07/02 12:03:54;;;;;;;0.80;0.40;;;;;;;;;;5063223;28;20488;-81
2023/07/02 12:06:20;;;;;;;0.32;0.32;;;;;;;;;;5056762;28;20024;-82
2023/07/02 12:08:45;;;;;;;1.05;0.75;;;;;;;;;;5057381;28;20021;-84
2023/07/02 12:11:11;;;;;;;2.63;1.15;;;;;;;;;;5059667;28;20485;-84
2023/07/02 12:13:36;;;;;;;0.75;0.55;;;;;;;;;;5064215;28;20375;-83
2023/07/02 12:16:02;;;;;;;1.27;0.57;;;;;;;;;;5060032;28;20048;-82
2023/07/02 12:18:27;;;;;;;0.85;0.73;;;;;;;;;;5061333;28;20024;-84
2023/07/02 12:20:53;;;;;;;0.30;0.30;;;;;;;;;;5060910;28;20025;-85
2023/07/02 12:23:18;;;;;;;0.60;0.50;;;;;;;;;;5062034;28;20039;-82
2023/07/02 12:25:43;;;;;;;0.80;0.52;;;;;;;;;;5056610;28;20032;-82
2023/07/02 12:28:09;;;;;;;1.65;0.77;;;;;;;;;;5057481;28;20028;-82
2023/07/02 12:30:34;;;;;;;2.00;0.93;;;;;;;;;;5060307;28;20053;-83
2023/07/02 12:33:00;;;;;;;1.30;0.77;;;;;;;;;;5064355;28;20033;-85
2023/07/02 12:35:25;;;;;;;2.42;1.20;;;;;;;;;;5056910;28;20047;-84
2023/07/02 12:37:53;;;;;;;1.58;1.27;;;;;;;;;;5055297;28;20120;-83
2023/07/02 12:40:19;;;;;;;1.00;0.75;;;;;;;;;;5050908;28;20036;-83
2023/07/02 12:42:45;;;;;;;0.95;0.70;;;;;;;;;;5060378;28;20078;-84
2023/07/02 12:45:12;;;;;;;1.23;0.75;;;;;;;;;;5059515;28;20362;-84
2023/07/02 12:47:39;;;;;;;0.57;0.57;;;;;;;;;;5061011;28;20035;-82
2023/07/02 12:50:05;;;;;;;3.83;1.65;;;;;;;;;;5059723;28;20029;-84
2023/07/02 12:52:31;;;;;;;1.30;0.68;;;;;;;;;;5054534;28;20364;-83
2023/07/02 12:54:57;;;;;;;0.98;0.57;;;;;;;;;;5061817;28;20025;-83
2023/07/02 12:57:22;;;;;;;1.55;0.85;;;;;;;;;;5060427;28;20479;-83
2023/07/02 12:59:48;;;;;;;0.75;0.50;;;;;;;;;;5051148;28;20454;-83
2023/07/02 13:02:13;;;;;;;0.52;0.40;;;;;;;;;;5061571;28;20021;-84
2023/07/02 13:04:39;;;;;;;1.45;0.98;;;;;;;;;;5057128;28;20025;-84
2023/07/02 13:07:05;;;;;;;2.10;0.98;;;;;;;;;;5057999;28;20476;-84
2023/07/02 13:09:30;;;;;;;1.00;0.90;;;;;;;;;;5053326;28;20040;-85
2023/07/02 13:11:56;;;;;;;1.40;0.98;;;;;;;;;;5054738;28;20037;-82
2023/07/02 13:14:21;;;;;;;2.35;1.17;;;;;;;;;;5063220;28;20124;-82
2023/07/02 13:16:47;;;;;;;0.98;0.55;;;;;;;;;;5060975;28;20079;-85
2023/07/02 13:19:13;;;;;;;0.65;0.65;;;;;;;;;;5064872;28;20381;-83
2023/07/02 13:21:38;;;;;;;2.80;1.25;;;;;;;;;;5063844;28;20029;-83
2023/07/02 13:24:04;;;;;;;1.67;0.90;;;;;;;;;;5058677;28;20025;-84
2023/07/02 13:26:29;;;;;;;1.60;1.00;;;;;;;;;;5055514;28;20499;-83
2023/07/02 13:28:55;;;;;;;1.13;0.93;;;;;;;;;;5064384;28;20085;-85
2023/07/02 13:31:20;;;;;;;1.38;0.88;;;;;;;;;;5059715;28;20025;-82
2023/07/02 13:33:46;;;;;;;1.95;1.23;;;;;;;;;;5056354;28;20027;-83
2023/07/02 13:36:12;;;;;;;3.15;1.77;;;;;;;;;;5063092;28;20039;-82
2023/07/02 13:38:38;;;;;;;1.42;1.17;;;;;;;;;;5057114;28;20525;-85
2023/07/02 13:41:03;;;;;;;0.80;0.50;;;;;;;;;;5057317;28;20033;-84
2023/07/02 13:43:29;;;;;;;1.55;0.75;;;;;;;;;;5058601;28;20504;-82
2023/07/02 13:45:54;;;;;;;2.00;1.17;;;;;;;;;;5063822;28;20023;-83
2023/07/02 13:48:20;;;;;;;0.85;0.65;;;;;;;;;;5055564;28;20506;-82
2023/07/02 13:50:45;;;;;;;1.85;1.48;;;;;;;;;;5055401;28;20021;-83
2023/07/02 13:53:10;;;;;;;1.25;0.93;;;;;;;;;;5058487;28;20028;-83
2023/07/02 13:55:36;;;;;;;1.73;1.05;;;;;;;;;;5061001;28;20017;-83
2023/07/02 13:58:01;;;;;;;1.58;0.75;;;;;;;;;;5051624;28;20029;-83
2023/07/02 14:00:27;;;;;;;2.00;1.08;;;;;;;;;;5061411;28;20361;-87
2023/07/02 14:02:53;;;;;;;2.03;1.02;;;;;;;;;;5063597;28;20078;-83
2023/07/02 14:05:19;;;;;;;1.58;0.82;;;;;;;;;;5062264;28;20047;-84
2023/07/02 14:07:45;;;;;;;2.25;1.30;;;;;;;;;;5054845;28;20048;-84
2023/07/02 14:10:12;;;;;;;1.08;0.60;;;;;;;;;;5060008;28;20071;-81
2023/07/02 14:12:38;;;;;;;2.20;1.17;;;;;;;;;;5060652;28;20727;-85
2023/07/02 14:15:04;;;;;;;1.58;0.98;;;;;;;;;;5053984;28;20057;-85
2023/07/02 14:17:30;;;;;;;1.30;0.95;;;;;;;;;;5053026;28;20107;-81
2023/07/02 14:19:55;;;;;;;9.18;2.30;;;;;;;;;;5056075;28;20476;-83
2023/07/02 14:22:20;;;;;;;3.88;1.80;;;;;;;;;;5063565;28;20103;-83
2023/07/02 14:24:46;;;;;;;1.08;0.80;;;;;;;;;;5055377;28;20029;-83
2023/07/02 14:27:11;;;;;;;3.25;1.30;;;;;;;;;;5055150;28;20054;-82
2023/07/02 14:29:37;;;;;;;1.95;0.98;;;;;;;;;;5057053;28;20058;-84
2023/07/02 14:32:02;;;;;;;1.08;0.90;;;;;;;;;;5057671;28;20029;-83
2023/07/02 14:34:28;;;;;;;2.25;1.10;;;;;;;;;;5057979;28;20040;-84
2023/07/02 14:36:53;;;;;;;0.80;0.77;;;;;;;;;;5059364;28;20102;-82
2023/07/02 14:39:19;;;;;;;3.33;1.50;;;;;;;;;;5054957;28;20031;-85
2023/07/02 14:41:44;;;;;;;3.65;1.77;;;;;;;;;;5053448;28;20191;-82